createdAt,value
2017-03-23T06:53:39.468Z,1013.7
2017-03-23T06:54:41.411Z,1013.7
2017-03-23T06:55:43.485Z,1013.7
2017-03-23T06:56:45.293Z,1013.8
2017-03-23T06:57:47.440Z,1013.7
2017-03-23T06:58:49.241Z,1013.8
2017-03-23T06:59:51.151Z,1013.7
2017-03-23T07:00:52.989Z,1013.8
2017-03-23T07:01:54.791Z,1013.8
2017-03-23T07:02:56.739Z,1013.8
2017-03-23T07:03:58.549Z,1013.8
2017-03-23T07:05:00.344Z,1013.8
2017-03-23T07:06:02.531Z,1013.8
2017-03-23T07:07:04.331Z,1013.8
2017-03-23T07:08:06.135Z,1013.8
2017-03-23T07:09:07.940Z,1013.8
2017-03-23T07:10:09.834Z,1013.8
2017-03-23T07:11:11.636Z,1013.8
2017-03-23T07:12:13.870Z,1013.8
2017-03-23T07:13:15.672Z,1013.9
2017-03-23T07:14:17.469Z,1013.8
2017-03-23T07:15:19.277Z,1013.8
2017-03-23T07:16:21.123Z,1013.9
2017-03-23T07:17:22.921Z,1013.9
2017-03-23T07:18:24.865Z,1013.9
2017-03-23T07:19:26.664Z,1013.9
2017-03-23T07:20:28.474Z,1014
2017-03-23T07:21:30.285Z,1014
2017-03-23T07:22:32.127Z,1014
2017-03-23T07:23:33.927Z,1014
2017-03-23T07:24:35.735Z,1014
2017-03-23T07:25:37.551Z,1014
2017-03-23T07:26:39.348Z,1014
2017-03-23T07:27:41.166Z,1014
2017-03-23T07:28:43.066Z,1014
2017-03-23T07:29:44.877Z,1014
2017-03-23T07:30:46.679Z,1014
2017-03-23T07:31:48.484Z,1014
2017-03-23T07:32:50.450Z,1014
2017-03-23T07:33:52.296Z,1014
2017-03-23T07:34:54.108Z,1014.1
2017-03-23T07:35:56.024Z,1014.1
2017-03-23T07:36:57.845Z,1014.1
2017-03-23T07:37:59.981Z,1014.1
2017-03-23T07:39:01.783Z,1014.1
2017-03-23T07:40:03.580Z,1014.1
2017-03-23T07:41:05.724Z,1014
2017-03-23T07:42:07.518Z,1014.1
2017-03-23T07:43:09.333Z,1014.1
2017-03-23T07:44:11.138Z,1014.1
2017-03-23T07:45:12.949Z,1014
2017-03-23T07:46:14.901Z,1014.1
2017-03-23T07:47:16.703Z,1014.1
2017-03-23T07:48:18.509Z,1014.1
2017-03-23T07:49:20.439Z,1014.1
2017-03-23T07:50:22.300Z,1014.1
2017-03-23T07:51:24.103Z,1014.1
2017-03-23T07:52:26.258Z,1014.2
2017-03-23T07:53:28.061Z,1014.1
2017-03-23T07:54:29.874Z,1014.1
2017-03-23T07:55:31.681Z,1014
2017-03-23T07:56:33.502Z,1014
2017-03-23T07:57:35.339Z,1014
2017-03-23T07:58:37.149Z,1014.1
2017-03-23T07:59:38.962Z,1014
2017-03-23T08:00:41.002Z,1014
2017-03-23T08:01:42.801Z,1014
2017-03-23T08:02:44.597Z,1014
2017-03-23T08:03:46.404Z,1013.9
2017-03-23T08:04:48.208Z,1013.9
2017-03-23T08:05:50.018Z,1013.9
2017-03-23T08:06:51.835Z,1013.9
2017-03-23T08:07:53.634Z,1013.9
2017-03-23T08:08:55.770Z,1013.9
2017-03-23T08:09:57.582Z,1014
2017-03-23T08:10:59.734Z,1013.9
2017-03-23T08:12:01.871Z,1014
2017-03-23T08:13:03.685Z,1014
2017-03-23T08:14:05.831Z,1014
2017-03-23T08:15:07.892Z,1014
2017-03-23T08:16:09.700Z,1014
2017-03-23T08:17:11.839Z,1014
2017-03-23T08:18:13.645Z,1014
2017-03-23T08:19:15.444Z,1014
2017-03-23T08:20:17.262Z,1014.1
2017-03-23T08:21:19.102Z,1014.1
2017-03-23T08:22:20.916Z,1014
2017-03-23T08:23:22.705Z,1014
2017-03-23T08:24:24.550Z,1014
2017-03-23T08:25:26.360Z,1014.1
2017-03-23T08:26:28.169Z,1014
2017-03-23T08:27:30.195Z,1014.1
2017-03-23T08:28:32.258Z,1014
2017-03-23T08:29:34.436Z,1014
2017-03-23T08:30:36.235Z,1014
2017-03-23T08:31:38.045Z,1014
2017-03-23T08:32:39.842Z,1014
2017-03-23T08:33:41.649Z,1014
2017-03-23T08:34:43.491Z,1014.1
2017-03-23T08:35:45.299Z,1014
2017-03-23T08:36:47.100Z,1014.1
2017-03-23T08:37:48.907Z,1014.1
2017-03-23T08:38:50.709Z,1014.1
2017-03-23T08:39:52.833Z,1014.1
2017-03-23T08:40:54.642Z,1014
2017-03-23T08:41:56.780Z,1014.1
2017-03-23T08:42:58.581Z,1014.1
2017-03-23T08:44:00.391Z,1014.1
2017-03-23T08:45:02.521Z,1014.1
2017-03-23T08:46:04.332Z,1014.2
2017-03-23T08:47:06.165Z,1014.1
2017-03-23T08:48:07.973Z,1014.1
2017-03-23T08:49:09.782Z,1014.2
2017-03-23T08:50:11.738Z,1014.2
2017-03-23T08:51:13.547Z,1014.2
2017-03-23T08:52:15.574Z,1014.1
2017-03-23T08:53:17.382Z,1014.2
2017-03-23T08:54:19.192Z,1014.1
2017-03-23T08:55:21.005Z,1014.1
2017-03-23T08:56:22.809Z,1014.2
2017-03-23T08:57:24.618Z,1014.1
2017-03-23T08:58:26.413Z,1014.1
2017-03-23T08:59:28.216Z,1014.2
2017-03-23T09:00:30.014Z,1014.1
2017-03-23T09:01:31.818Z,1014.1
2017-03-23T09:02:33.896Z,1014.1
2017-03-23T09:03:35.700Z,1014.1
2017-03-23T09:04:37.536Z,1014.1
2017-03-23T09:05:39.689Z,1014.1
2017-03-23T09:06:41.496Z,1014.2
2017-03-23T09:07:43.309Z,1014.1
2017-03-23T09:08:45.113Z,1014.2
2017-03-23T09:09:46.915Z,1014.2
2017-03-23T09:10:48.726Z,1014.2
2017-03-23T09:11:50.522Z,1014.2
2017-03-23T09:12:52.325Z,1014.2
2017-03-23T09:13:54.128Z,1014.2
2017-03-23T09:14:55.933Z,1014.2
2017-03-23T09:15:58.066Z,1014.2
2017-03-23T09:16:59.867Z,1014.2
2017-03-23T09:18:01.665Z,1014.2
2017-03-23T09:19:03.505Z,1014.2
2017-03-23T09:20:05.308Z,1014.1
2017-03-23T09:21:07.116Z,1014.2
2017-03-23T09:22:08.917Z,1014.2
2017-03-23T09:23:10.717Z,1014.2
2017-03-23T09:24:12.522Z,1014.3
2017-03-23T09:25:14.322Z,1014.2
2017-03-23T09:26:16.134Z,1014.2
2017-03-23T09:27:17.941Z,1014.2
2017-03-23T09:28:19.745Z,1014.3
2017-03-23T09:29:21.556Z,1014.2
2017-03-23T09:30:23.697Z,1014.2
2017-03-23T09:31:25.531Z,1014.2
2017-03-23T09:32:27.618Z,1014.3
2017-03-23T09:33:29.762Z,1014.2
2017-03-23T09:34:31.592Z,1014.2
2017-03-23T09:35:33.408Z,1014.3
2017-03-23T09:36:35.203Z,1014.3
2017-03-23T09:37:37.324Z,1014.3
2017-03-23T09:38:39.158Z,1014.3
2017-03-23T09:39:40.957Z,1014.2
2017-03-23T09:40:42.766Z,1014.3
2017-03-23T09:41:44.565Z,1014.2
2017-03-23T09:42:46.734Z,1014.2
2017-03-23T09:43:48.743Z,1014.3
2017-03-23T09:44:50.549Z,1014.2
2017-03-23T09:45:52.349Z,1014.2
2017-03-23T09:46:54.147Z,1014.2
2017-03-23T09:47:55.954Z,1014.3
2017-03-23T09:48:57.768Z,1014.3
2017-03-23T09:49:59.771Z,1014.2
2017-03-23T09:51:01.973Z,1014.2
2017-03-23T09:52:03.792Z,1014.2
2017-03-23T09:53:05.594Z,1014.2
2017-03-23T09:54:07.403Z,1014.3
2017-03-23T09:55:09.213Z,1014.2
2017-03-23T09:56:11.008Z,1014.3
2017-03-23T09:57:12.809Z,1014.2
2017-03-23T09:58:14.981Z,1014.2
2017-03-23T09:59:16.784Z,1014.2
2017-03-23T10:00:18.581Z,1014.2
2017-03-23T10:01:20.475Z,1014.2
2017-03-23T10:02:22.281Z,1014.2
2017-03-23T10:03:24.330Z,1014.2
2017-03-23T10:04:26.137Z,1014.2
2017-03-23T10:05:27.941Z,1014.1
2017-03-23T10:06:29.745Z,1014.2
2017-03-23T10:07:31.551Z,1014.2
2017-03-23T10:08:33.361Z,1014.2
2017-03-23T10:09:35.160Z,1014.2
2017-03-23T10:10:36.962Z,1014.2
2017-03-23T10:11:38.767Z,1014.1
2017-03-23T10:12:40.565Z,1014.2
2017-03-23T10:13:42.371Z,1014.2
2017-03-23T10:14:44.170Z,1014.2
2017-03-23T10:15:45.981Z,1014.2
2017-03-23T10:16:47.784Z,1014.2
2017-03-23T10:17:49.586Z,1014.1
2017-03-23T10:18:51.384Z,1014.2
2017-03-23T10:19:53.189Z,1014.2
2017-03-23T10:20:54.997Z,1014.2
2017-03-23T10:21:57.176Z,1014.2
2017-03-23T10:22:58.974Z,1014.2
2017-03-23T10:24:01.018Z,1014.2
2017-03-23T10:25:02.814Z,1014.2
2017-03-23T10:26:04.621Z,1014.2
2017-03-23T10:27:06.419Z,1014.2
2017-03-23T10:28:08.227Z,1014.3
2017-03-23T10:29:10.033Z,1014.1
2017-03-23T10:30:11.838Z,1014.1
2017-03-23T10:31:13.986Z,1014.2
2017-03-23T10:32:16.125Z,1014.2
2017-03-23T10:33:18.265Z,1014.2
2017-03-23T10:34:20.072Z,1014.2
2017-03-23T10:35:21.874Z,1014.1
2017-03-23T10:36:23.884Z,1014.2
2017-03-23T10:37:26.305Z,1014.2
2017-03-23T10:38:28.111Z,1014.2
2017-03-23T10:39:29.915Z,1014.2
2017-03-23T10:40:31.724Z,1014.2
2017-03-23T10:41:33.528Z,1014.2
2017-03-23T10:42:35.322Z,1014.2
2017-03-23T10:43:37.127Z,1014.2
2017-03-23T10:44:38.935Z,1014.2
2017-03-23T10:45:40.737Z,1014.1
2017-03-23T10:46:42.547Z,1014.2
2017-03-23T10:47:44.665Z,1014.2
2017-03-23T10:48:46.814Z,1014.2
2017-03-23T10:49:48.622Z,1014.2
2017-03-23T10:50:50.423Z,1014.2
2017-03-23T10:51:52.226Z,1014.2
2017-03-23T10:52:54.029Z,1014.2
2017-03-23T10:53:56.403Z,1014.2
2017-03-23T10:54:58.201Z,1014.2
2017-03-23T10:56:00.003Z,1014.3
2017-03-23T10:57:02.106Z,1014.2
2017-03-23T10:58:03.906Z,1014.3
2017-03-23T10:59:05.969Z,1014.2
2017-03-23T11:00:07.769Z,1014.2
2017-03-23T11:01:09.575Z,1014.2
2017-03-23T11:02:11.376Z,1014.2
2017-03-23T11:03:13.176Z,1014.3
2017-03-23T11:04:14.981Z,1014.3
2017-03-23T11:05:17.129Z,1014.2
2017-03-23T11:06:18.968Z,1014.3
2017-03-23T11:07:20.776Z,1014.3
2017-03-23T11:08:22.595Z,1014.3
2017-03-23T11:09:24.405Z,1014.2
2017-03-23T11:10:26.214Z,1014.3
2017-03-23T11:11:28.243Z,1014.3
2017-03-23T11:12:30.380Z,1014.3
2017-03-23T11:13:32.188Z,1014.3
2017-03-23T11:14:34.012Z,1014.3
2017-03-23T11:15:36.171Z,1014.3
2017-03-23T11:16:37.986Z,1014.3
2017-03-23T11:17:39.785Z,1014.3
2017-03-23T11:18:41.640Z,1014.3
2017-03-23T11:19:43.451Z,1014.3
2017-03-23T11:20:45.477Z,1014.3
2017-03-23T11:21:47.807Z,1014.2
2017-03-23T11:22:49.608Z,1014.3
2017-03-23T11:23:51.412Z,1014.3
2017-03-23T11:24:53.222Z,1014.3
2017-03-23T11:25:55.021Z,1014.2
2017-03-23T11:26:56.833Z,1014.3
2017-03-23T11:27:58.634Z,1014.3
2017-03-23T11:29:00.443Z,1014.2
2017-03-23T11:30:02.250Z,1014.2
2017-03-23T11:31:04.054Z,1014.3
2017-03-23T11:32:05.869Z,1014.2
2017-03-23T11:33:07.669Z,1014.3
2017-03-23T11:34:09.728Z,1014.3
2017-03-23T11:35:11.842Z,1014.3
2017-03-23T11:36:13.987Z,1014.3
2017-03-23T11:37:16.125Z,1014.4
2017-03-23T11:38:18.289Z,1014.3
2017-03-23T11:39:20.103Z,1014.3
2017-03-23T11:40:21.901Z,1014.3
2017-03-23T11:41:23.712Z,1014.3
2017-03-23T11:42:25.545Z,1014.3
2017-03-23T11:43:27.349Z,1014.3
2017-03-23T11:44:29.170Z,1014.3
2017-03-23T11:45:31.261Z,1014.3
2017-03-23T11:46:33.420Z,1014.3
2017-03-23T11:47:35.410Z,1014.3
2017-03-23T11:48:37.902Z,1014.3
2017-03-23T11:49:40.357Z,1014.3
2017-03-23T11:50:42.161Z,1014.3
2017-03-23T11:51:43.973Z,1014.3
2017-03-23T11:52:45.779Z,1014.3
2017-03-23T11:53:47.586Z,1014.3
2017-03-23T11:54:49.389Z,1014.3
2017-03-23T11:55:51.199Z,1014.3
2017-03-23T11:56:52.993Z,1014.4
2017-03-23T11:57:55.010Z,1014.4
2017-03-23T11:58:56.813Z,1014.3
2017-03-23T11:59:58.845Z,1014.3
2017-03-23T12:01:00.647Z,1014.4
2017-03-23T12:02:02.448Z,1014.4
2017-03-23T12:03:04.257Z,1014.3
2017-03-23T12:04:06.058Z,1014.3
2017-03-23T12:05:07.863Z,1014.3
2017-03-23T12:06:09.665Z,1014.4
2017-03-23T12:07:11.464Z,1014.3
2017-03-23T12:08:13.280Z,1014.3
2017-03-23T12:09:15.079Z,1014.3
2017-03-23T12:10:17.235Z,1014.3
2017-03-23T12:11:19.344Z,1014.4
2017-03-23T12:12:21.156Z,1014.4
2017-03-23T12:13:23.216Z,1014.4
2017-03-23T12:14:25.023Z,1014.4
2017-03-23T12:15:26.827Z,1014.4
2017-03-23T12:16:28.628Z,1014.4
2017-03-23T12:17:30.439Z,1014.4
2017-03-23T12:18:32.268Z,1014.4
2017-03-23T12:19:34.418Z,1014.4
2017-03-23T12:20:36.224Z,1014.4
2017-03-23T12:21:38.028Z,1014.4
2017-03-23T12:22:39.839Z,1014.4
2017-03-23T12:23:41.643Z,1014.4
2017-03-23T12:24:43.507Z,1014.4
2017-03-23T12:25:45.312Z,1014.4
2017-03-23T12:26:47.360Z,1014.4
2017-03-23T12:27:49.499Z,1014.4
2017-03-23T12:28:51.309Z,1014.4
2017-03-23T12:29:53.107Z,1014.3
2017-03-23T12:30:54.915Z,1014.4
2017-03-23T12:31:56.723Z,1014.3
2017-03-23T12:32:58.528Z,1014.3
2017-03-23T12:34:00.334Z,1014.4
2017-03-23T12:35:02.483Z,1014.3
2017-03-23T12:36:04.293Z,1014.3
2017-03-23T12:37:06.101Z,1014.3
2017-03-23T12:38:07.901Z,1014.2
2017-03-23T12:39:09.715Z,1014.3
2017-03-23T12:40:11.510Z,1014.2
2017-03-23T12:41:13.320Z,1014.2
2017-03-23T12:42:15.121Z,1014.2
2017-03-23T12:43:16.927Z,1014.2
2017-03-23T12:44:18.742Z,1014.3
2017-03-23T12:45:20.537Z,1014.2
2017-03-23T12:46:22.346Z,1014.2
2017-03-23T12:47:24.166Z,1014.2
2017-03-23T12:48:25.965Z,1014.2
2017-03-23T12:49:27.768Z,1014.2
2017-03-23T12:50:29.575Z,1014.2
2017-03-23T12:51:31.392Z,1014.2
2017-03-23T12:52:33.532Z,1014.2
2017-03-23T12:53:35.342Z,1014.1
2017-03-23T12:54:37.150Z,1014.1
2017-03-23T12:55:38.955Z,1014.1
2017-03-23T12:56:40.769Z,1014.2
2017-03-23T12:57:42.570Z,1014.1
2017-03-23T12:58:44.386Z,1014.1
2017-03-23T12:59:46.190Z,1014.1
2017-03-23T13:00:48.014Z,1014.1
2017-03-23T13:01:49.841Z,1014.1
2017-03-23T13:02:51.988Z,1014.1
2017-03-23T13:03:53.822Z,1014.1
2017-03-23T13:04:55.697Z,1014.1
2017-03-23T13:05:57.653Z,1014.2
2017-03-23T13:06:59.483Z,1014.2
2017-03-23T13:08:01.294Z,1014.1
2017-03-23T13:09:03.317Z,1014.2
2017-03-23T13:10:05.150Z,1014.1
2017-03-23T13:11:07.107Z,1014.1
2017-03-23T13:12:08.897Z,1014.1
2017-03-23T13:13:10.714Z,1014.1
2017-03-23T13:14:12.631Z,1014.1
2017-03-23T13:15:14.539Z,1014.1
2017-03-23T13:16:16.702Z,1014.1
2017-03-23T13:17:18.731Z,1014.2
2017-03-23T13:18:20.544Z,1014.2
2017-03-23T13:19:22.363Z,1014.2
2017-03-23T13:20:24.183Z,1014.2
2017-03-23T13:21:25.986Z,1014.2
2017-03-23T13:22:27.798Z,1014.2
2017-03-23T13:23:29.709Z,1014.2
2017-03-23T13:24:31.510Z,1014.3
2017-03-23T13:25:33.386Z,1014.3
2017-03-23T13:26:35.191Z,1014.2
2017-03-23T13:27:37.217Z,1014.3
2017-03-23T13:28:39.029Z,1014.2
2017-03-23T13:29:41.330Z,1014.2
2017-03-23T13:30:43.323Z,1014.3
2017-03-23T13:31:45.141Z,1014.2
2017-03-23T13:32:47.661Z,1014.3
2017-03-23T13:33:49.473Z,1014.3
2017-03-23T13:34:51.517Z,1014.3
2017-03-23T13:35:53.322Z,1014.3
2017-03-23T13:36:55.131Z,1014.2
2017-03-23T13:37:56.937Z,1014.3
2017-03-23T13:38:58.954Z,1014.3
2017-03-23T13:40:01.130Z,1014.3
2017-03-23T13:41:03.270Z,1014.3
2017-03-23T13:42:05.131Z,1014.3
2017-03-23T13:43:07.643Z,1014.3
2017-03-23T13:44:09.443Z,1014.3
2017-03-23T13:45:11.246Z,1014.3
2017-03-23T13:46:13.066Z,1014.3
2017-03-23T13:47:15.126Z,1014.4
2017-03-23T13:48:17.234Z,1014.4
2017-03-23T13:49:19.044Z,1014.4
2017-03-23T13:50:20.846Z,1014.3
2017-03-23T13:51:22.989Z,1014.4
2017-03-23T13:52:24.804Z,1014.4
2017-03-23T13:53:26.594Z,1014.4
2017-03-23T13:54:28.460Z,1014.4
2017-03-23T13:55:30.265Z,1014.4
2017-03-23T13:56:32.081Z,1014.5
2017-03-23T13:57:34.237Z,1014.4
2017-03-23T13:58:36.388Z,1014.5
2017-03-23T13:59:38.198Z,1014.5
2017-03-23T14:00:40.002Z,1014.5
2017-03-23T14:01:41.811Z,1014.5
2017-03-23T14:02:43.615Z,1014.5
2017-03-23T14:03:45.424Z,1014.5
2017-03-23T14:04:47.853Z,1014.6
2017-03-23T14:05:49.660Z,1014.6
2017-03-23T14:06:51.458Z,1014.6
2017-03-23T14:07:53.271Z,1014.6
2017-03-23T14:08:55.082Z,1014.6
2017-03-23T14:09:56.893Z,1014.6
2017-03-23T14:10:59.063Z,1014.6
2017-03-23T14:12:00.882Z,1014.6
2017-03-23T14:13:02.698Z,1014.7
2017-03-23T14:14:04.504Z,1014.6
2017-03-23T14:15:06.307Z,1014.6
2017-03-23T14:16:08.170Z,1014.6
2017-03-23T14:17:10.061Z,1014.6
2017-03-23T14:18:11.873Z,1014.6
2017-03-23T14:19:13.693Z,1014.6
2017-03-23T14:20:15.502Z,1014.6
2017-03-23T14:21:17.313Z,1014.6
2017-03-23T14:22:19.382Z,1014.6
2017-03-23T14:23:21.188Z,1014.6
2017-03-23T14:24:22.996Z,1014.6
2017-03-23T14:25:24.795Z,1014.6
2017-03-23T14:26:26.600Z,1014.6
2017-03-23T14:27:28.401Z,1014.6
2017-03-23T14:28:30.216Z,1014.6
2017-03-23T14:29:32.018Z,1014.6
2017-03-23T14:30:33.841Z,1014.6
2017-03-23T14:31:35.654Z,1014.6
2017-03-23T14:32:37.457Z,1014.6
2017-03-23T14:33:39.560Z,1014.6
2017-03-23T14:34:41.371Z,1014.6
2017-03-23T14:35:43.178Z,1014.7
2017-03-23T14:36:45.321Z,1014.6
2017-03-23T14:37:47.128Z,1014.7
2017-03-23T14:38:48.943Z,1014.7
2017-03-23T14:39:50.740Z,1014.7
2017-03-23T14:40:52.561Z,1014.8
2017-03-23T14:41:54.359Z,1014.7
2017-03-23T14:42:56.509Z,1014.7
2017-03-23T14:43:58.502Z,1014.7
2017-03-23T14:45:00.319Z,1014.8
2017-03-23T14:46:02.129Z,1014.8
2017-03-23T14:47:03.971Z,1014.8
2017-03-23T14:48:05.780Z,1014.8
2017-03-23T14:49:07.587Z,1014.9
2017-03-23T14:50:09.715Z,1014.9
2017-03-23T14:51:11.518Z,1014.9
2017-03-23T14:52:13.329Z,1014.9
2017-03-23T14:53:15.132Z,1014.9
2017-03-23T14:54:16.941Z,1014.9
2017-03-23T14:55:18.743Z,1014.9
2017-03-23T14:56:20.552Z,1014.9
2017-03-23T14:57:22.358Z,1014.9
2017-03-23T14:58:24.167Z,1014.9
2017-03-23T14:59:25.970Z,1014.9
2017-03-23T15:00:27.779Z,1014.9
2017-03-23T15:01:29.582Z,1014.9
2017-03-23T15:02:31.730Z,1014.9
2017-03-23T15:03:33.544Z,1014.9
2017-03-23T15:04:35.347Z,1014.9
2017-03-23T15:05:37.501Z,1014.9
2017-03-23T15:06:39.317Z,1014.9
2017-03-23T15:07:41.134Z,1014.9
2017-03-23T15:08:42.921Z,1014.9
2017-03-23T15:09:44.741Z,1014.9
2017-03-23T15:10:46.562Z,1014.9
2017-03-23T15:11:48.368Z,1014.9
2017-03-23T15:12:50.183Z,1014.9
2017-03-23T15:13:51.987Z,1014.9
2017-03-23T15:14:54.133Z,1014.9
2017-03-23T15:15:56.038Z,1014.9
2017-03-23T15:16:57.977Z,1014.9
2017-03-23T15:17:59.778Z,1014.9
2017-03-23T15:19:01.590Z,1014.9
2017-03-23T15:20:03.398Z,1014.9
2017-03-23T15:21:05.209Z,1014.9
2017-03-23T15:22:07.014Z,1015
2017-03-23T15:23:08.825Z,1014.9
2017-03-23T15:24:10.665Z,1014.9
2017-03-23T15:25:12.467Z,1014.9
2017-03-23T15:26:14.267Z,1014.9
2017-03-23T15:27:16.075Z,1015
2017-03-23T15:28:17.897Z,1014.9
2017-03-23T15:29:19.714Z,1015
2017-03-23T15:30:21.530Z,1015
2017-03-23T15:31:23.349Z,1015
2017-03-23T15:32:25.189Z,1015
2017-03-23T15:33:26.997Z,1015
2017-03-23T15:34:28.804Z,1015
2017-03-23T15:35:30.614Z,1015
2017-03-23T15:36:32.424Z,1015
2017-03-23T15:37:34.234Z,1015
2017-03-23T15:38:36.039Z,1015
2017-03-23T15:39:37.847Z,1015
2017-03-23T15:40:39.665Z,1015.1
2017-03-23T15:41:41.473Z,1015
2017-03-23T15:42:43.276Z,1015.1
2017-03-23T15:43:45.078Z,1015.1
2017-03-23T15:44:46.894Z,1015.2
2017-03-23T15:45:48.703Z,1015.2
2017-03-23T15:46:50.503Z,1015.1
2017-03-23T15:47:52.314Z,1015.2
2017-03-23T15:48:54.127Z,1015.2
2017-03-23T15:49:55.932Z,1015.2
2017-03-23T15:50:57.744Z,1015.2
2017-03-23T15:51:59.553Z,1015.2
2017-03-23T15:53:01.706Z,1015.2
2017-03-23T15:54:03.515Z,1015.2
2017-03-23T15:55:05.318Z,1015.3
2017-03-23T15:56:07.128Z,1015.3
2017-03-23T15:57:09.268Z,1015.3
2017-03-23T15:58:11.081Z,1015.3
2017-03-23T15:59:12.888Z,1015.3
2017-03-23T16:00:14.707Z,1015.3
2017-03-23T16:01:16.516Z,1015.3
2017-03-23T16:02:18.321Z,1015.3
2017-03-23T16:03:20.167Z,1015.3
2017-03-23T16:04:22.308Z,1015.3
2017-03-23T16:05:24.126Z,1015.3
2017-03-23T16:06:25.929Z,1015.4
2017-03-23T16:07:27.748Z,1015.4
2017-03-23T16:08:29.554Z,1015.4
2017-03-23T16:09:31.376Z,1015.4
2017-03-23T16:10:33.190Z,1015.4
2017-03-23T16:11:35.327Z,1015.4
2017-03-23T16:12:37.141Z,1015.4
2017-03-23T16:13:38.944Z,1015.4
2017-03-23T16:14:40.746Z,1015.4
2017-03-23T16:15:42.562Z,1015.4
2017-03-23T16:16:44.374Z,1015.5
2017-03-23T16:17:46.195Z,1015.5
2017-03-23T16:18:47.998Z,1015.5
2017-03-23T16:19:50.157Z,1015.5
2017-03-23T16:20:51.962Z,1015.5
2017-03-23T16:21:53.779Z,1015.5
2017-03-23T16:22:55.584Z,1015.5
2017-03-23T16:23:57.386Z,1015.5
2017-03-23T16:24:59.196Z,1015.5
2017-03-23T16:26:00.994Z,1015.5
2017-03-23T16:27:02.806Z,1015.6
2017-03-23T16:28:04.606Z,1015.6
2017-03-23T16:29:06.414Z,1015.6
2017-03-23T16:30:08.216Z,1015.6
2017-03-23T16:31:10.377Z,1015.6
2017-03-23T16:32:12.189Z,1015.6
2017-03-23T16:33:13.998Z,1015.6
2017-03-23T16:34:15.810Z,1015.6
2017-03-23T16:35:17.613Z,1015.6
2017-03-23T16:36:19.420Z,1015.6
2017-03-23T16:37:21.231Z,1015.6
2017-03-23T16:38:23.049Z,1015.5
2017-03-23T16:39:25.216Z,1015.6
2017-03-23T16:40:27.036Z,1015.6
2017-03-23T16:41:28.849Z,1015.6
2017-03-23T16:42:30.660Z,1015.6
2017-03-23T16:43:32.463Z,1015.6
2017-03-23T16:44:34.270Z,1015.5
2017-03-23T16:45:36.080Z,1015.6
2017-03-23T16:46:37.885Z,1015.6
2017-03-23T16:47:39.700Z,1015.6
2017-03-23T16:48:41.509Z,1015.6
2017-03-23T16:49:43.323Z,1015.6
2017-03-23T16:50:45.127Z,1015.6
2017-03-23T16:51:46.925Z,1015.6
2017-03-23T16:52:49.078Z,1015.6
2017-03-23T16:53:50.898Z,1015.6
2017-03-23T16:54:52.703Z,1015.6
2017-03-23T16:55:54.512Z,1015.6
2017-03-23T16:56:56.314Z,1015.7
2017-03-23T16:57:58.156Z,1015.6
2017-03-23T16:59:00.304Z,1015.7
2017-03-23T17:00:02.103Z,1015.7
2017-03-23T17:01:03.967Z,1015.7
2017-03-23T17:02:05.774Z,1015.7
2017-03-23T17:03:07.580Z,1015.8
2017-03-23T17:04:09.735Z,1015.8
2017-03-23T17:05:11.542Z,1015.8
2017-03-23T17:06:13.355Z,1015.8
2017-03-23T17:07:15.165Z,1015.8
2017-03-23T17:08:16.978Z,1015.8
2017-03-23T17:09:18.782Z,1015.9
2017-03-23T17:10:20.934Z,1015.9
2017-03-23T17:11:22.777Z,1015.9
2017-03-23T17:12:24.581Z,1016
2017-03-23T17:13:26.391Z,1016
2017-03-23T17:14:28.207Z,1016
2017-03-23T17:15:30.018Z,1015.9
2017-03-23T17:16:31.825Z,1016
2017-03-23T17:17:33.633Z,1016
2017-03-23T17:18:35.435Z,1016
2017-03-23T17:19:37.586Z,1016
2017-03-23T17:20:39.385Z,1016
2017-03-23T17:21:41.879Z,1016
2017-03-23T17:22:44.039Z,1016
2017-03-23T17:23:45.852Z,1015.9
2017-03-23T17:24:47.666Z,1016
2017-03-23T17:25:49.813Z,1015.9
2017-03-23T17:26:51.621Z,1016
2017-03-23T17:27:53.437Z,1016
2017-03-23T17:28:55.934Z,1016
2017-03-23T17:29:57.749Z,1016
2017-03-23T17:30:59.571Z,1016.1
2017-03-23T17:32:01.374Z,1016.1
2017-03-23T17:33:03.188Z,1016.1
2017-03-23T17:34:04.991Z,1016.1
2017-03-23T17:35:06.792Z,1016.1
2017-03-23T17:36:08.600Z,1016.1
2017-03-23T17:37:10.405Z,1016.1
2017-03-23T17:38:12.214Z,1016.2
2017-03-23T17:39:14.365Z,1016.2
2017-03-23T17:40:16.173Z,1016.2
2017-03-23T17:41:17.984Z,1016.2
2017-03-23T17:42:20.129Z,1016.2
2017-03-23T17:43:21.933Z,1016.3
2017-03-23T17:44:24.769Z,1016.2
2017-03-23T17:45:26.931Z,1016.3
2017-03-23T17:46:28.739Z,1016.3
2017-03-23T17:47:30.545Z,1016.3
2017-03-23T17:48:32.354Z,1016.3
2017-03-23T17:49:34.502Z,1016.3
2017-03-23T17:50:36.650Z,1016.3
2017-03-23T17:51:38.786Z,1016.3
2017-03-23T17:52:41.271Z,1016.3
2017-03-23T17:53:43.088Z,1016.3
2017-03-23T17:54:44.902Z,1016.4
2017-03-23T17:55:46.727Z,1016.4
2017-03-23T17:56:48.534Z,1016.4
2017-03-23T17:57:50.350Z,1016.4
2017-03-23T17:58:52.496Z,1016.4
2017-03-23T17:59:54.306Z,1016.4
2017-03-23T18:00:56.455Z,1016.5
2017-03-23T18:01:58.264Z,1016.5
2017-03-23T18:03:00.077Z,1016.5
2017-03-23T18:04:01.885Z,1016.5
2017-03-23T18:05:03.700Z,1016.5
2017-03-23T18:06:05.505Z,1016.5
2017-03-23T18:07:07.321Z,1016.5
2017-03-23T18:08:09.127Z,1016.6
2017-03-23T18:09:10.933Z,1016.6
2017-03-23T18:10:12.745Z,1016.6
2017-03-23T18:11:14.884Z,1016.6
2017-03-23T18:12:16.699Z,1016.7
2017-03-23T18:13:19.814Z,1016.7
2017-03-23T18:14:22.298Z,1016.6
2017-03-23T18:15:24.775Z,1016.7
2017-03-23T18:16:26.919Z,1016.8
2017-03-23T18:17:29.081Z,1016.7
2017-03-23T18:18:31.236Z,1016.8
2017-03-23T18:19:33.717Z,1016.8
2017-03-23T18:20:35.869Z,1016.8
2017-03-23T18:21:37.687Z,1016.8
2017-03-23T18:22:39.850Z,1016.9
2017-03-23T18:23:41.671Z,1016.8
2017-03-23T18:24:43.475Z,1016.9
2017-03-23T18:25:45.289Z,1016.9
2017-03-23T18:26:47.090Z,1016.9
2017-03-23T18:27:48.904Z,1016.9
2017-03-23T18:28:51.057Z,1016.9
2017-03-23T18:29:52.863Z,1016.9
2017-03-23T18:30:55.027Z,1016.9
2017-03-23T18:31:56.858Z,1017
2017-03-23T18:32:58.660Z,1016.9
2017-03-23T18:34:00.854Z,1017
2017-03-23T18:35:02.995Z,1017
2017-03-23T18:36:04.812Z,1017
2017-03-23T18:37:06.608Z,1017
2017-03-23T18:38:08.409Z,1017.1
2017-03-23T18:39:10.229Z,1017.1
2017-03-23T18:40:12.036Z,1017.1
2017-03-23T18:41:13.855Z,1017.1
2017-03-23T18:42:15.662Z,1017.1
2017-03-23T18:43:17.467Z,1017.2
2017-03-23T18:44:19.288Z,1017.2
2017-03-23T18:45:21.097Z,1017.2
2017-03-23T18:46:22.901Z,1017.2
2017-03-23T18:47:24.715Z,1017.3
2017-03-23T18:48:26.857Z,1017.3
2017-03-23T18:49:28.673Z,1017.3
2017-03-23T18:50:30.807Z,1017.3
2017-03-23T18:51:32.952Z,1017.4
2017-03-23T18:52:34.763Z,1017.4
2017-03-23T18:53:36.912Z,1017.4
2017-03-23T18:54:39.055Z,1017.4
2017-03-23T18:55:41.194Z,1017.4
2017-03-23T18:56:43.003Z,1017.4
2017-03-23T18:57:45.150Z,1017.4
2017-03-23T18:58:47.299Z,1017.4
2017-03-23T18:59:49.122Z,1017.4
2017-03-23T19:00:50.940Z,1017.4
2017-03-23T19:01:52.776Z,1017.4
2017-03-23T19:02:54.584Z,1017.4
2017-03-23T19:03:56.730Z,1017.4
2017-03-23T19:04:58.544Z,1017.4
2017-03-23T19:06:00.354Z,1017.4
2017-03-23T19:07:02.165Z,1017.4
2017-03-23T19:08:03.975Z,1017.4
2017-03-23T19:09:05.783Z,1017.4
2017-03-23T19:10:07.586Z,1017.4
2017-03-23T19:11:09.406Z,1017.4
2017-03-23T19:12:11.246Z,1017.4
2017-03-23T19:13:13.400Z,1017.4
2017-03-23T19:14:15.288Z,1017.4
2017-03-23T19:15:17.462Z,1017.4
2017-03-23T19:16:19.268Z,1017.4
2017-03-23T19:17:21.080Z,1017.4
2017-03-23T19:18:23.266Z,1017.4
2017-03-23T19:19:25.761Z,1017.4
2017-03-23T19:20:27.911Z,1017.5
2017-03-23T19:21:29.790Z,1017.5
2017-03-23T19:22:31.934Z,1017.5
2017-03-23T19:23:33.916Z,1017.4
2017-03-23T19:24:35.723Z,1017.5
2017-03-23T19:25:37.560Z,1017.5
2017-03-23T19:26:39.545Z,1017.4
2017-03-23T19:27:41.345Z,1017.5
2017-03-23T19:28:43.251Z,1017.4
2017-03-23T19:29:45.388Z,1017.5
2017-03-23T19:30:47.193Z,1017.5
2017-03-23T19:31:49.006Z,1017.5
2017-03-23T19:32:50.804Z,1017.5
2017-03-23T19:33:52.609Z,1017.5
2017-03-23T19:34:54.760Z,1017.5
2017-03-23T19:35:56.920Z,1017.5
2017-03-23T19:36:59.069Z,1017.5
2017-03-23T19:38:00.981Z,1017.5
2017-03-23T19:39:03.127Z,1017.6
2017-03-23T19:40:04.943Z,1017.6
2017-03-23T19:41:06.758Z,1017.6
2017-03-23T19:42:08.570Z,1017.6
2017-03-23T19:43:10.374Z,1017.6
2017-03-23T19:44:12.599Z,1017.6
2017-03-23T19:45:14.741Z,1017.6
2017-03-23T19:46:16.546Z,1017.6
2017-03-23T19:47:18.360Z,1017.6
2017-03-23T19:48:20.166Z,1017.7
2017-03-23T19:49:21.995Z,1017.6
2017-03-23T19:50:23.801Z,1017.7